createdAt,value
2018-07-09T00:00:12.157Z,0
2018-07-09T00:01:12.183Z,0
2018-07-09T00:01:57.548Z,0
2018-07-09T00:03:11.970Z,0
2018-07-09T00:03:57.334Z,0
2018-07-09T00:04:57.617Z,0
2018-07-09T00:05:57.640Z,0
2018-07-09T00:06:57.407Z,0
2018-07-09T00:08:12.350Z,0
2018-07-09T00:09:12.380Z,0
2018-07-09T00:09:57.743Z,0
2018-07-09T00:10:57.890Z,0
2018-07-09T00:11:57.275Z,0
2018-07-09T00:13:57.839Z,0
2018-07-09T00:15:12.531Z,0
2018-07-09T00:17:57.680Z,0
2018-07-09T00:19:12.625Z,0
2018-07-09T00:19:57.985Z,0
2018-07-09T00:20:57.758Z,0
2018-07-09T00:21:58.037Z,0
2018-07-09T00:22:58.063Z,0
2018-07-09T00:24:12.758Z,0
2018-07-09T00:24:58.132Z,0
2018-07-09T00:25:58.138Z,0
2018-07-09T00:26:58.159Z,0
2018-07-09T00:27:57.930Z,0
2018-07-09T00:28:57.697Z,0
2018-07-09T00:29:57.977Z,0
2018-07-09T00:30:58.265Z,0
2018-07-09T00:31:58.286Z,0
2018-07-09T00:32:58.316Z,0
2018-07-09T00:34:12.739Z,0
2018-07-09T00:34:58.357Z,0
2018-07-09T00:35:58.385Z,0
2018-07-09T00:36:58.409Z,0
2018-07-09T00:37:58.183Z,0
2018-07-09T00:40:13.146Z,0
2018-07-09T00:41:13.170Z,0
2018-07-09T00:41:58.538Z,0
2018-07-09T00:42:58.304Z,0
2018-07-09T00:44:12.986Z,0
2018-07-09T00:44:58.610Z,0
2018-07-09T00:45:58.373Z,0
2018-07-09T00:46:58.657Z,0
2018-07-09T00:47:58.686Z,0
2018-07-09T00:48:58.709Z,0
2018-07-09T00:50:13.405Z,0
2018-07-09T00:50:58.643Z,0
2018-07-09T00:51:58.789Z,0
2018-07-09T00:52:58.544Z,0
2018-07-09T00:53:58.828Z,0
2018-07-09T00:54:58.853Z,0
2018-07-09T00:55:58.880Z,0
2018-07-09T00:56:58.901Z,0
2018-07-09T00:58:13.589Z,0
2018-07-09T00:58:58.950Z,0
2018-07-09T00:59:58.975Z,0
2018-07-09T01:00:59.003Z,0
2018-07-09T01:01:58.776Z,0
2018-07-09T01:02:58.790Z,0
2018-07-09T01:04:13.735Z,0
2018-07-09T01:04:59.106Z,0
2018-07-09T01:05:58.863Z,0
2018-07-09T01:06:58.890Z,0
2018-07-09T01:07:59.167Z,0
2018-07-09T01:08:58.938Z,0
2018-07-09T01:09:59.216Z,0
2018-07-09T01:11:14.179Z,0
2018-07-09T01:11:59.012Z,0
2018-07-09T01:12:59.303Z,0
2018-07-09T01:14:13.725Z,0
2018-07-09T01:14:59.343Z,0
2018-07-09T01:15:59.114Z,0
2018-07-09T01:16:59.392Z,0
2018-07-09T01:17:59.155Z,0
2018-07-09T01:18:59.444Z,0
2018-07-09T01:20:14.136Z,0
2018-07-09T01:20:59.231Z,0
2018-07-09T01:21:59.521Z,0
2018-07-09T01:22:59.538Z,0
2018-07-09T01:23:59.565Z,0
2018-07-09T01:24:59.587Z,0
2018-07-09T01:26:14.277Z,0
2018-07-09T01:27:14.040Z,0
2018-07-09T01:27:59.659Z,0
2018-07-09T01:28:59.680Z,0
2018-07-09T01:29:59.714Z,0
2018-07-09T01:31:14.393Z,0
2018-07-09T01:33:59.549Z,0
2018-07-09T01:35:14.492Z,0
2018-07-09T01:36:14.515Z,0
2018-07-09T01:36:59.879Z,0
2018-07-09T01:37:59.901Z,0
2018-07-09T01:38:59.674Z,0
2018-07-09T01:40:59.977Z,0
2018-07-09T01:41:59.751Z,0
2018-07-09T01:43:14.431Z,0
2018-07-09T01:44:14.715Z,0
2018-07-09T01:45:00.081Z,0
2018-07-09T01:46:14.759Z,0
2018-07-09T01:47:00.129Z,0
2018-07-09T01:49:00.175Z,0
2018-07-09T01:50:00.202Z,0
2018-07-09T01:52:00.248Z,0
2018-07-09T01:53:00.020Z,0
2018-07-09T01:55:00.078Z,0
2018-07-09T01:56:00.085Z,0
2018-07-09T01:56:59.854Z,0
2018-07-09T01:58:00.389Z,0
2018-07-09T01:59:14.826Z,0
2018-07-09T02:00:00.441Z,0
2018-07-09T02:01:00.462Z,0
2018-07-09T02:02:14.998Z,0
2018-07-09T02:03:00.252Z,0
2018-07-09T02:05:00.564Z,0
2018-07-09T02:06:00.327Z,4
2018-07-09T02:07:15.273Z,4
2018-07-09T02:08:00.637Z,4
2018-07-09T02:10:00.689Z,0
2018-07-09T02:11:00.706Z,4
2018-07-09T02:12:00.728Z,4
2018-07-09T02:13:00.759Z,4
2018-07-09T02:14:15.463Z,4
2018-07-09T02:15:00.809Z,4
2018-07-09T02:16:00.830Z,8
2018-07-09T02:17:00.855Z,4
2018-07-09T02:18:00.876Z,8
2018-07-09T02:19:00.642Z,8
2018-07-09T02:20:00.511Z,8
2018-07-09T02:21:00.441Z,8
2018-07-09T02:22:00.718Z,8
2018-07-09T02:23:15.656Z,12
2018-07-09T02:24:15.684Z,12
2018-07-09T02:25:00.791Z,12
2018-07-09T02:26:01.068Z,16
2018-07-09T02:27:01.098Z,20
2018-07-09T02:28:01.115Z,20
2018-07-09T02:29:01.142Z,24
2018-07-09T02:30:00.916Z,24
2018-07-09T02:31:00.942Z,32
2018-07-09T02:32:00.973Z,36
2018-07-09T02:33:01.241Z,40
2018-07-09T02:34:01.004Z,44
2018-07-09T02:36:01.315Z,56
2018-07-09T02:37:01.340Z,60
2018-07-09T02:38:01.366Z,68
2018-07-09T02:39:01.387Z,80
2018-07-09T02:40:01.410Z,84
2018-07-09T02:41:01.179Z,96
2018-07-09T02:42:01.202Z,104
2018-07-09T02:43:01.479Z,112
2018-07-09T02:44:01.254Z,124
2018-07-09T02:45:01.012Z,132
2018-07-09T02:46:16.221Z,148
2018-07-09T02:47:01.318Z,160
2018-07-09T02:48:16.005Z,180
2018-07-09T02:49:01.528Z,188
2018-07-09T02:50:01.397Z,208
2018-07-09T02:51:01.685Z,224
2018-07-09T02:52:01.472Z,240
2018-07-09T02:53:01.208Z,256
2018-07-09T02:54:01.752Z,280
2018-07-09T02:55:16.432Z,300
2018-07-09T02:56:16.262Z,324
2018-07-09T02:57:01.558Z,340
2018-07-09T02:58:01.894Z,364
2018-07-09T02:59:01.612Z,388
2018-07-09T03:00:02.028Z,416
2018-07-09T03:01:16.989Z,452
2018-07-09T03:02:16.596Z,480
2018-07-09T03:03:01.710Z,504
2018-07-09T03:05:16.684Z,572
2018-07-09T03:06:01.783Z,596
2018-07-09T03:07:02.093Z,632
2018-07-09T03:08:16.226Z,676
2018-07-09T03:09:02.113Z,708
2018-07-09T03:10:01.873Z,748
2018-07-09T03:11:01.896Z,792
2018-07-09T03:12:02.187Z,832
2018-07-09T03:13:01.949Z,872
2018-07-09T03:14:01.716Z,904
2018-07-09T03:15:01.993Z,940
2018-07-09T03:16:02.274Z,972
2018-07-09T03:17:02.315Z,1000
2018-07-09T03:18:16.986Z,1048
2018-07-09T03:19:02.525Z,1080
2018-07-09T03:20:02.128Z,1112
2018-07-09T03:21:02.404Z,1152
2018-07-09T03:22:02.421Z,1188
2018-07-09T03:23:01.929Z,1228
2018-07-09T03:24:02.215Z,1292
2018-07-09T03:25:02.492Z,1360
2018-07-09T03:26:02.254Z,1448
2018-07-09T03:27:16.938Z,1540
2018-07-09T03:28:02.305Z,1596
2018-07-09T03:29:17.242Z,1692
2018-07-09T03:30:02.611Z,1752
2018-07-09T03:31:02.685Z,1816
2018-07-09T03:32:02.668Z,1864
2018-07-09T03:33:02.784Z,1928
2018-07-09T03:34:17.367Z,2024
2018-07-09T03:35:02.474Z,2064
2018-07-09T03:36:02.757Z,2112
2018-07-09T03:38:02.796Z,2104
2018-07-09T03:39:02.832Z,2124
2018-07-09T03:40:02.844Z,2132
2018-07-09T03:41:02.355Z,2228
2018-07-09T03:42:02.893Z,2344
2018-07-09T03:43:02.921Z,2376
2018-07-09T03:44:02.942Z,2372
2018-07-09T03:45:02.968Z,2364
2018-07-09T03:46:02.732Z,2436
2018-07-09T03:47:02.752Z,2912
2018-07-09T03:48:03.037Z,4088
2018-07-09T03:49:17.729Z,5172
2018-07-09T03:50:03.096Z,5156
2018-07-09T03:51:03.117Z,4968
2018-07-09T03:52:03.139Z,4088
2018-07-09T03:53:03.159Z,3684
2018-07-09T03:56:03.229Z,5260
2018-07-09T03:57:02.997Z,5564
2018-07-09T03:59:03.303Z,5064
2018-07-09T04:00:03.067Z,4980
2018-07-09T04:01:03.354Z,5064
2018-07-09T04:02:03.372Z,5084
2018-07-09T04:03:03.398Z,5172
2018-07-09T04:04:18.087Z,5028
2018-07-09T04:05:03.186Z,5196
2018-07-09T04:06:03.473Z,5400
2018-07-09T04:07:03.501Z,5612
2018-07-09T04:08:03.519Z,5744
2018-07-09T04:09:03.293Z,5804
2018-07-09T04:10:03.311Z,5976
2018-07-09T04:11:03.337Z,6128
2018-07-09T04:12:03.359Z,6368
2018-07-09T04:13:03.638Z,6332
2018-07-09T04:14:18.325Z,6536
2018-07-09T04:15:03.693Z,6816
2018-07-09T04:16:03.462Z,8064
2018-07-09T04:17:03.491Z,13716
2018-07-09T04:18:18.425Z,30848
2018-07-09T04:19:03.788Z,36672
2018-07-09T04:20:03.300Z,37120
2018-07-09T04:21:18.493Z,38624
2018-07-09T04:22:03.622Z,37824
2018-07-09T04:23:03.883Z,33472
2018-07-09T04:24:03.390Z,25664
2018-07-09T04:25:03.415Z,25472
2018-07-09T04:26:03.700Z,29056
2018-07-09T04:27:03.727Z,30304
2018-07-09T04:28:03.762Z,38016
2018-07-09T04:29:03.774Z,37184
2018-07-09T04:30:03.802Z,35712
2018-07-09T04:31:03.570Z,43200
2018-07-09T04:32:04.115Z,45024
2018-07-09T04:33:18.803Z,45120
2018-07-09T04:34:03.999Z,46336
2018-07-09T04:35:03.677Z,48576
2018-07-09T04:36:18.881Z,49408
2018-07-09T04:37:18.904Z,49440
2018-07-09T04:38:04.135Z,49568
2018-07-09T04:39:03.785Z,51168
2018-07-09T04:40:04.327Z,48864
2018-07-09T04:41:04.357Z,49536
2018-07-09T04:42:04.125Z,51680
2018-07-09T04:44:04.177Z,53024
2018-07-09T04:45:04.219Z,54048
2018-07-09T04:46:03.979Z,53248
2018-07-09T04:47:04.270Z,53792
2018-07-09T04:48:04.298Z,54688
2018-07-09T04:49:04.581Z,52160
2018-07-09T04:50:04.612Z,53952
2018-07-09T04:51:04.384Z,56448
2018-07-09T04:52:04.411Z,57952
2018-07-09T04:53:19.373Z,60832
2018-07-09T04:54:04.743Z,59744
2018-07-09T04:55:04.513Z,57952
2018-07-09T04:56:04.539Z,62880
2018-07-09T04:58:04.613Z,63648
2018-07-09T05:01:04.951Z,63456
2018-07-09T05:02:04.725Z,66528
2018-07-09T05:04:04.840Z,64960
2018-07-09T05:05:04.893Z,63360
2018-07-09T05:06:05.118Z,64160
2018-07-09T05:07:05.142Z,63232
2018-07-09T05:08:05.174Z,59968
2018-07-09T05:09:19.862Z,66304
2018-07-09T05:10:05.237Z,67136
2018-07-09T05:11:05.265Z,67328
2018-07-09T05:12:19.958Z,67584
2018-07-09T05:13:05.552Z,66592
2018-07-09T05:14:05.109Z,69600
2018-07-09T05:15:20.153Z,73152
2018-07-09T05:16:05.426Z,73568
2018-07-09T05:17:05.456Z,70016
2018-07-09T05:18:05.490Z,71200
2018-07-09T05:19:05.524Z,71584
2018-07-09T05:20:19.961Z,69088
2018-07-09T05:21:05.080Z,68192
2018-07-09T05:22:05.640Z,73568
2018-07-09T05:23:20.326Z,71072
2018-07-09T05:24:19.837Z,69088
2018-07-09T05:25:05.725Z,74240
2018-07-09T05:26:05.500Z,72224
2018-07-09T05:27:05.798Z,78048
2018-07-09T05:28:20.489Z,79008
2018-07-09T05:29:05.860Z,77792
2018-07-09T05:30:05.632Z,79840
2018-07-09T05:31:20.591Z,76416
2018-07-09T05:32:05.963Z,64352
2018-07-09T05:33:05.737Z,67680
2018-07-09T05:34:05.768Z,77600
2018-07-09T05:35:05.805Z,76224
2018-07-09T05:36:06.103Z,76736
2018-07-09T05:37:06.130Z,64064
2018-07-09T05:38:06.168Z,67648
2018-07-09T05:39:06.199Z,65152
2018-07-09T05:40:06.195Z,71360
2018-07-09T05:41:06.018Z,76000
2018-07-09T05:42:05.785Z,72512
2018-07-09T05:43:06.343Z,66688
2018-07-09T05:45:06.408Z,81216
2018-07-09T05:47:06.555Z,70112
2018-07-09T05:48:06.562Z,70848
2018-07-09T05:49:06.281Z,74688
2018-07-09T05:50:21.242Z,74240
2018-07-09T05:51:06.621Z,62496
2018-07-09T05:52:06.652Z,68704
2018-07-09T05:53:06.165Z,65600
2018-07-09T05:54:21.125Z,57632
2018-07-09T05:55:06.493Z,20512
2018-07-09T05:56:21.442Z,61280
2018-07-09T05:57:06.554Z,54112
2018-07-09T05:58:21.304Z,59808
2018-07-09T05:59:07.183Z,76192
2018-07-09T06:00:06.922Z,27424
2018-07-09T06:01:06.693Z,25920
2018-07-09T06:02:06.995Z,91648
2018-07-09T06:03:07.016Z,32096
2018-07-09T06:04:06.535Z,20736
2018-07-09T06:06:07.128Z,95392
2018-07-09T06:07:21.825Z,45728
2018-07-09T06:08:06.926Z,91296
2018-07-09T06:09:21.632Z,86912
2018-07-09T06:10:06.991Z,91968
2018-07-09T06:12:21.983Z,95008
2018-07-09T06:13:06.831Z,94688
2018-07-09T06:14:07.125Z,89376
2018-07-09T06:15:07.575Z,89184
2018-07-09T06:16:07.452Z,91680
2018-07-09T06:17:07.491Z,86816
2018-07-09T06:19:07.558Z,91904
2018-07-09T06:21:07.373Z,95296
2018-07-09T06:22:07.658Z,91040
2018-07-09T06:23:07.439Z,92128
2018-07-09T06:24:07.214Z,96544
2018-07-09T06:25:07.250Z,100192
2018-07-09T06:26:07.545Z,99040
2018-07-09T06:27:07.837Z,95552
2018-07-09T06:28:22.279Z,96768
2018-07-09T06:29:07.647Z,96800
2018-07-09T06:30:07.685Z,95584
2018-07-09T06:31:07.993Z,95648
2018-07-09T06:32:07.781Z,98816
2018-07-09T06:33:07.541Z,99232
2018-07-09T06:34:07.840Z,98720
2018-07-09T06:35:08.123Z,96640
2018-07-09T06:36:07.642Z,94176
2018-07-09T06:37:07.948Z,97248
2018-07-09T06:38:08.238Z,95744
2018-07-09T06:39:08.268Z,85792
2018-07-09T06:40:08.328Z,91168
2018-07-09T06:41:08.348Z,91904
2018-07-09T06:42:23.047Z,95520
2018-07-09T06:43:08.260Z,94752
2018-07-09T06:44:23.116Z,91168
2018-07-09T06:45:07.974Z,87104
2018-07-09T06:46:23.191Z,86560
2018-07-09T06:47:23.227Z,87680
2018-07-09T06:48:08.714Z,89856
2018-07-09T06:50:08.526Z,87616
2018-07-09T06:51:08.715Z,86016
2018-07-09T06:52:08.495Z,85248
2018-07-09T06:53:08.787Z,86144
2018-07-09T06:54:08.588Z,83552
2018-07-09T06:55:08.606Z,82144
2018-07-09T06:56:08.843Z,84672
2018-07-09T06:57:23.604Z,86912
2018-07-09T06:58:08.461Z,84896
2018-07-09T06:59:23.677Z,88640
2018-07-09T07:00:08.533Z,87712
2018-07-09T07:01:09.098Z,86912
2018-07-09T07:03:09.168Z,82016
2018-07-09T07:04:08.688Z,83520
2018-07-09T07:05:09.023Z,81472
2018-07-09T07:06:09.018Z,77344
2018-07-09T07:08:24.010Z,74912
2018-07-09T07:09:09.860Z,74912
2018-07-09T07:10:09.229Z,74624
2018-07-09T07:11:09.205Z,77536
2018-07-09T07:12:09.495Z,78336
2018-07-09T07:13:09.023Z,80480
2018-07-09T07:14:09.582Z,84896
2018-07-09T07:16:09.391Z,84832
2018-07-09T07:17:24.092Z,80480
2018-07-09T07:18:09.730Z,80544
2018-07-09T07:19:24.166Z,85056
2018-07-09T07:20:09.542Z,85248
2018-07-09T07:21:10.117Z,86976
2018-07-09T07:22:09.614Z,84800
2018-07-09T07:23:09.649Z,82784
2018-07-09T07:24:09.952Z,82816
2018-07-09T07:25:09.724Z,82432
2018-07-09T07:26:10.039Z,80608
2018-07-09T07:27:10.062Z,81344
2018-07-09T07:28:09.850Z,82080
2018-07-09T07:29:10.138Z,81664
2018-07-09T07:30:10.170Z,75712
2018-07-09T07:31:24.871Z,68256
2018-07-09T07:32:10.346Z,66272
2018-07-09T07:33:10.436Z,67264
2018-07-09T07:34:10.085Z,67616
2018-07-09T07:35:10.102Z,68128
2018-07-09T07:36:09.880Z,65440
2018-07-09T07:37:09.923Z,64736
2018-07-09T07:39:10.510Z,70592
2018-07-09T07:40:10.558Z,69760
2018-07-09T07:41:25.247Z,70304
2018-07-09T07:42:10.370Z,68736
2018-07-09T07:43:10.402Z,73216
2018-07-09T07:45:10.727Z,74752
2018-07-09T07:46:10.556Z,75072
2018-07-09T07:47:25.478Z,74368
2018-07-09T07:48:10.855Z,72640
2018-07-09T07:49:10.614Z,73184
2018-07-09T07:50:10.723Z,73152
2018-07-09T07:52:10.473Z,71424
2018-07-09T07:53:11.026Z,70784
2018-07-09T07:54:11.070Z,69184
2018-07-09T07:55:11.104Z,71232
2018-07-09T07:56:11.145Z,71136
2018-07-09T07:57:10.911Z,68512
2018-07-09T07:58:10.949Z,61760
2018-07-09T07:59:11.262Z,58656
2018-07-09T08:00:11.015Z,55136
2018-07-09T08:01:11.423Z,50272
2018-07-09T08:02:10.836Z,45952
2018-07-09T08:03:26.064Z,50048
2018-07-09T08:04:11.166Z,51232
2018-07-09T08:05:26.120Z,54912
2018-07-09T08:06:11.548Z,57504
2018-07-09T08:07:11.529Z,62240
2018-07-09T08:08:11.573Z,62400
2018-07-09T08:09:11.349Z,64864
2018-07-09T08:10:11.638Z,63872
2018-07-09T08:11:18.615Z,67168
2018-07-09T08:13:47.247Z,62400
2018-07-09T08:13:56.735Z,62464
2018-07-09T08:15:11.684Z,63968
2018-07-09T08:15:56.804Z,58944
2018-07-09T08:16:57.091Z,47584
2018-07-09T08:17:57.140Z,39392
2018-07-09T08:18:57.011Z,37664
2018-07-09T08:19:57.218Z,36704
2018-07-09T08:21:11.950Z,42464
2018-07-09T08:21:57.288Z,44640
2018-07-09T08:22:57.344Z,44832
2018-07-09T08:23:57.357Z,49664
2018-07-09T08:24:57.748Z,54400
2018-07-09T08:26:12.098Z,56992
2018-07-09T08:26:57.448Z,55680
2018-07-09T08:27:57.245Z,55776
2018-07-09T08:28:57.532Z,52832
2018-07-09T08:29:57.592Z,57568
2018-07-09T08:30:57.614Z,60448
2018-07-09T08:31:57.368Z,58176
2018-07-09T08:32:57.673Z,59968
2018-07-09T08:33:57.435Z,59328
2018-07-09T08:35:12.130Z,55040
2018-07-09T08:35:57.767Z,54400
2018-07-09T08:36:57.802Z,53344
2018-07-09T08:37:57.429Z,50880
2018-07-09T08:39:12.528Z,42112
2018-07-09T08:39:57.910Z,39296
2018-07-09T08:40:57.956Z,35200
2018-07-09T08:41:57.713Z,33920
2018-07-09T08:42:58.012Z,35520
2018-07-09T08:43:58.044Z,40384
2018-07-09T08:44:58.083Z,42176
2018-07-09T08:45:58.164Z,41536
2018-07-09T08:46:57.894Z,36192
2018-07-09T08:47:57.923Z,29056
2018-07-09T08:48:57.966Z,26592
2018-07-09T08:49:58.005Z,25824
2018-07-09T08:50:58.286Z,25376
2018-07-09T08:51:58.070Z,24544
2018-07-09T08:52:58.103Z,24352
2018-07-09T08:53:58.388Z,24640
2018-07-09T08:55:27.753Z,24192
2018-07-09T08:55:58.201Z,23776
2018-07-09T08:56:58.492Z,23360
2018-07-09T08:57:58.527Z,23328
2018-07-09T08:58:58.566Z,22624
2018-07-09T08:59:58.595Z,21696
2018-07-09T09:03:13.106Z,23872
2018-07-09T09:03:59.118Z,24384
2018-07-09T09:05:13.440Z,24384
2018-07-09T09:05:58.805Z,24448
2018-07-09T09:06:58.838Z,25248
2018-07-09T09:07:58.615Z,24096
2018-07-09T09:08:58.908Z,24224
2018-07-09T09:09:58.978Z,23104
2018-07-09T09:11:28.308Z,23616
2018-07-09T09:11:59.009Z,23680
2018-07-09T09:12:58.784Z,23680
2018-07-09T09:13:59.079Z,22272
2018-07-09T09:14:59.128Z,21888
2018-07-09T09:15:58.888Z,22144
2018-07-09T09:16:58.924Z,21664
2018-07-09T09:17:58.956Z,21600
2018-07-09T09:18:58.995Z,20672
2018-07-09T09:19:59.031Z,21824
2018-07-09T09:21:13.985Z,22592
2018-07-09T09:21:59.093Z,22688
2018-07-09T09:22:58.872Z,22400
2018-07-09T09:23:59.164Z,22464
2018-07-09T09:24:58.946Z,22400
2018-07-09T09:25:58.973Z,22272
2018-07-09T09:27:14.186Z,22048
2018-07-09T09:27:59.559Z,22048
2018-07-09T09:28:59.603Z,21632
2018-07-09T09:29:59.625Z,21504
2018-07-09T09:31:14.438Z,21440
2018-07-09T09:32:59.740Z,21248
2018-07-09T09:33:59.769Z,20992
2018-07-09T09:34:59.800Z,21088
2018-07-09T09:35:59.581Z,20832
2018-07-09T09:36:59.370Z,20640
2018-07-09T09:37:59.928Z,20832
2018-07-09T09:38:59.418Z,19136
2018-07-09T09:39:59.977Z,17792
2018-07-09T09:41:00.002Z,20352
2018-07-09T09:42:14.442Z,20768
2018-07-09T09:43:00.128Z,20352
2018-07-09T09:43:59.844Z,19136
2018-07-09T09:45:00.142Z,18208
2018-07-09T09:46:00.175Z,16948
2018-07-09T09:46:59.958Z,16204
2018-07-09T09:48:00.244Z,15160
2018-07-09T09:49:14.707Z,13640
2018-07-09T09:50:00.314Z,13108
2018-07-09T09:50:59.824Z,13220
2018-07-09T09:52:00.377Z,13256
2018-07-09T09:53:00.153Z,13356
2018-07-09T09:54:00.451Z,13800
2018-07-09T09:55:00.368Z,14160
2018-07-09T09:56:00.511Z,14068
2018-07-09T09:57:00.285Z,13984
2018-07-09T09:58:00.317Z,13844
2018-07-09T09:59:00.614Z,13740
2018-07-09T10:00:15.305Z,13540
2018-07-09T10:01:00.172Z,13520
2018-07-09T10:02:00.189Z,13552
2018-07-09T10:03:00.486Z,13600
2018-07-09T10:04:00.525Z,13644
2018-07-09T10:05:00.811Z,13740
2018-07-09T10:06:00.840Z,13844
2018-07-09T10:07:00.885Z,13976
2018-07-09T10:08:00.910Z,14172
2018-07-09T10:09:00.934Z,14632
2018-07-09T10:10:00.705Z,15348
2018-07-09T10:11:00.994Z,15816
2018-07-09T10:12:00.779Z,15896
2018-07-09T10:13:00.800Z,16112
2018-07-09T10:14:15.752Z,16276
2018-07-09T10:15:01.124Z,16960
2018-07-09T10:16:01.163Z,17472
2018-07-09T10:17:01.519Z,18304
2018-07-09T10:18:01.223Z,18208
2018-07-09T10:19:00.988Z,18560
2018-07-09T10:20:01.022Z,19424
2018-07-09T10:21:01.062Z,20000
2018-07-09T10:22:01.091Z,19136
2018-07-09T10:23:01.714Z,18400
2018-07-09T10:24:01.411Z,19168
2018-07-09T10:25:01.181Z,19072
2018-07-09T10:26:01.479Z,18496
2018-07-09T10:27:01.513Z,18368
2018-07-09T10:28:01.272Z,18368
2018-07-09T10:29:01.568Z,18496
2018-07-09T10:30:16.004Z,18304
2018-07-09T10:31:01.631Z,17984
2018-07-09T10:32:01.408Z,17792
2018-07-09T10:33:01.178Z,17408
2018-07-09T10:34:01.470Z,16556
2018-07-09T10:35:01.506Z,16588
2018-07-09T10:36:01.633Z,16392
2018-07-09T10:37:16.485Z,15676
2018-07-09T10:38:01.592Z,15428
2018-07-09T10:39:16.545Z,14880
2018-07-09T10:40:01.922Z,14536
2018-07-09T10:41:16.711Z,13780
2018-07-09T10:42:01.986Z,13268
2018-07-09T10:43:02.010Z,12724
2018-07-09T10:44:02.044Z,12492
2018-07-09T10:45:16.742Z,12136
2018-07-09T10:46:16.771Z,12276
2018-07-09T10:47:02.180Z,12072
2018-07-09T10:48:16.852Z,12128
2018-07-09T10:49:01.962Z,12444
2018-07-09T10:50:16.897Z,12248
2018-07-09T10:51:02.272Z,12136
2018-07-09T10:52:02.301Z,12008
2018-07-09T10:53:02.340Z,11732
2018-07-09T10:54:16.775Z,11656
2018-07-09T10:55:02.407Z,11536
2018-07-09T10:56:02.426Z,11456
2018-07-09T10:57:02.468Z,11280
2018-07-09T10:59:02.522Z,11132
2018-07-09T11:00:02.548Z,10920
2018-07-09T11:01:02.588Z,10884
2018-07-09T11:02:31.985Z,11328
2018-07-09T11:03:02.125Z,11628
2018-07-09T11:04:17.077Z,11972
2018-07-09T11:05:02.705Z,12060
2018-07-09T11:06:02.731Z,12648
2018-07-09T11:07:17.169Z,12944
2018-07-09T11:08:02.800Z,12696
2018-07-09T11:09:17.489Z,13396
2018-07-09T11:11:02.630Z,13252
2018-07-09T11:12:02.918Z,11436
2018-07-09T11:13:02.692Z,10540
2018-07-09T11:14:02.459Z,12464
2018-07-09T11:15:02.489Z,12640
2018-07-09T11:16:03.035Z,14132
2018-07-09T11:17:17.729Z,15172
2018-07-09T11:18:17.763Z,15468
2018-07-09T11:19:02.873Z,15468
2018-07-09T11:20:17.819Z,15140
2018-07-09T11:21:03.189Z,14928
2018-07-09T11:22:03.218Z,14652
2018-07-09T11:23:03.247Z,13396
2018-07-09T11:24:03.021Z,13008
2018-07-09T11:25:17.978Z,13816
2018-07-09T11:26:03.352Z,13692
2018-07-09T11:27:03.465Z,13468
2018-07-09T11:28:03.398Z,13492
2018-07-09T11:29:03.424Z,13380
2018-07-09T11:30:03.196Z,13320
2018-07-09T11:31:03.234Z,9912
2018-07-09T11:32:03.262Z,10236
2018-07-09T11:33:03.298Z,11764
2018-07-09T11:34:02.803Z,11956
2018-07-09T11:35:03.613Z,13048
2018-07-09T11:36:04.025Z,13112
2018-07-09T11:39:03.469Z,10976
2018-07-09T11:40:03.781Z,14028
2018-07-09T11:41:18.447Z,12880
2018-07-09T11:42:03.614Z,13916
2018-07-09T11:43:03.589Z,13704
2018-07-09T11:44:03.615Z,12408
2018-07-09T11:45:03.909Z,11984
2018-07-09T11:46:03.955Z,12504
2018-07-09T11:47:03.707Z,12316
2018-07-09T11:48:03.992Z,12292
2018-07-09T11:49:18.684Z,13288
2018-07-09T11:51:03.841Z,17184
2018-07-09T11:52:03.911Z,15732
2018-07-09T11:53:03.889Z,14096
2018-07-09T11:54:04.175Z,14076
2018-07-09T11:56:04.237Z,14384
2018-07-09T11:57:18.670Z,14000
2018-07-09T11:58:04.037Z,13612
2018-07-09T11:59:04.616Z,13408
2018-07-09T12:00:04.365Z,13232
2018-07-09T12:01:04.491Z,13200
2018-07-09T12:02:03.979Z,13224
2018-07-09T12:05:18.905Z,14060
2018-07-09T12:06:04.277Z,13628
2018-07-09T12:07:04.047Z,13072
2018-07-09T12:08:04.336Z,12732
2018-07-09T12:09:04.364Z,12460
2018-07-09T12:10:19.055Z,12648
2018-07-09T12:11:04.692Z,13244
2018-07-09T12:12:04.197Z,12976
2018-07-09T12:13:04.748Z,12976
2018-07-09T12:14:04.778Z,13208
2018-07-09T12:15:04.559Z,13388
2018-07-09T12:17:04.867Z,14152
2018-07-09T12:18:04.897Z,12448
2018-07-09T12:19:04.668Z,12236
2018-07-09T12:20:04.959Z,14760
2018-07-09T12:21:19.757Z,13100
2018-07-09T12:22:05.010Z,11548
2018-07-09T12:23:04.786Z,10448
2018-07-09T12:24:05.069Z,9392
2018-07-09T12:25:04.839Z,10228
2018-07-09T12:26:05.126Z,9064
2018-07-09T12:27:05.161Z,9224
2018-07-09T12:29:05.225Z,10092
2018-07-09T12:30:05.241Z,10328
2018-07-09T12:31:19.940Z,10236
2018-07-09T12:32:05.308Z,10296
2018-07-09T12:33:05.078Z,10080
2018-07-09T12:34:05.107Z,9936
2018-07-09T12:35:05.390Z,9892
2018-07-09T12:36:20.191Z,9872
2018-07-09T12:37:20.120Z,9944
2018-07-09T12:38:04.966Z,10004
2018-07-09T12:39:05.508Z,9996
2018-07-09T12:40:20.202Z,9924
2018-07-09T12:42:05.345Z,10208
2018-07-09T12:43:05.369Z,10700
2018-07-09T12:45:20.352Z,11104
2018-07-09T12:46:05.729Z,11800
2018-07-09T12:47:05.746Z,11392
2018-07-09T12:48:05.517Z,11612
2018-07-09T12:49:05.807Z,11692
2018-07-09T12:50:05.577Z,11548
2018-07-09T12:52:20.553Z,11060
2018-07-09T12:53:05.673Z,10836
2018-07-09T12:54:05.692Z,10324
2018-07-09T12:55:05.724Z,9672
2018-07-09T12:56:05.814Z,9140
2018-07-09T12:57:06.050Z,8832
2018-07-09T12:58:05.808Z,8936
2018-07-09T12:59:05.840Z,9240
2018-07-09T13:00:05.868Z,9740
2018-07-09T13:01:20.816Z,10208
2018-07-09T13:02:05.929Z,10520
2018-07-09T13:03:20.875Z,10900
2018-07-09T13:04:05.725Z,10884
2018-07-09T13:05:06.274Z,10836
2018-07-09T13:06:06.300Z,10788
2018-07-09T13:07:06.604Z,10876
2018-07-09T13:08:06.365Z,11040
2018-07-09T13:09:06.131Z,11340
2018-07-09T13:10:06.166Z,11652
2018-07-09T13:11:06.493Z,11388
2018-07-09T13:12:20.909Z,11332
2018-07-09T13:13:06.543Z,11124
2018-07-09T13:14:06.276Z,11124
2018-07-09T13:15:06.302Z,11464
2018-07-09T13:16:20.992Z,11940
2018-07-09T13:17:06.361Z,11888
2018-07-09T13:18:05.875Z,11844
2018-07-09T13:19:06.168Z,12064
2018-07-09T13:20:06.300Z,11496
2018-07-09T13:21:05.962Z,11340
2018-07-09T13:22:06.791Z,11048
2018-07-09T13:23:06.787Z,10876
2018-07-09T13:24:21.476Z,11688
2018-07-09T13:26:06.362Z,9664
2018-07-09T13:27:06.128Z,9604
2018-07-09T13:28:06.931Z,8632
2018-07-09T13:29:06.969Z,8572
2018-07-09T13:30:07.027Z,8652
2018-07-09T13:31:07.519Z,8956
2018-07-09T13:32:21.708Z,9048
2018-07-09T13:33:06.818Z,9032
2018-07-09T13:34:06.845Z,9028
2018-07-09T13:36:06.910Z,9636
2018-07-09T13:37:06.931Z,10384
2018-07-09T13:38:21.987Z,10384
2018-07-09T13:39:07.248Z,12092
2018-07-09T13:40:21.677Z,9588
2018-07-09T13:41:07.309Z,11572
2018-07-09T13:42:21.735Z,8764
2018-07-09T13:43:07.430Z,8500
2018-07-09T13:46:07.447Z,8716
2018-07-09T13:47:07.212Z,8636
2018-07-09T13:48:22.216Z,8548
2018-07-09T13:49:07.523Z,8704
2018-07-09T13:50:07.311Z,9220
2018-07-09T13:51:07.326Z,9388
2018-07-09T13:52:07.393Z,9520
2018-07-09T13:53:07.382Z,9192
2018-07-09T13:54:07.522Z,8288
2018-07-09T13:55:07.704Z,7824
2018-07-09T13:56:22.391Z,7372
2018-07-09T13:57:07.770Z,7492
2018-07-09T13:58:07.524Z,7896
2018-07-09T13:59:07.559Z,8096
2018-07-09T14:00:07.584Z,8556
2018-07-09T14:01:07.615Z,8636
2018-07-09T14:02:07.905Z,8364
2018-07-09T14:03:07.681Z,8016
2018-07-09T14:04:07.753Z,7592
2018-07-09T14:05:22.643Z,7344
2018-07-09T14:06:22.670Z,7268
2018-07-09T14:07:07.803Z,7532
2018-07-09T14:08:08.061Z,7416
2018-07-09T14:09:07.837Z,7092
2018-07-09T14:10:08.123Z,7332
2018-07-09T14:11:08.197Z,7788
2018-07-09T14:12:22.586Z,7900
2018-07-09T14:13:08.205Z,7752
2018-07-09T14:14:08.231Z,8016